Time;durP1;ratioP1;P1;durP2;ratioP2;P2;SDS_P1;SDS_P2;PMS_P1;PMS_P2;Temp;Humidity;BMP_temperature;BMP_pressure;BME280_temperature;BME280_humidity;BME280_pressure;Samples;Min_cycle;Max_cycle;Signal;HPM_P1;HPM_P2
2023/10/22 00:01:15;;;;;;;3.47;1.35;;;12.70;99.90;;;;;;5028921;28;20037;-60
2023/10/22 00:03:41;;;;;;;6.45;1.65;;;12.70;99.90;;;;;;5030810;28;20478;-59
2023/10/22 00:06:06;;;;;;;4.88;1.60;;;12.70;99.90;;;;;;5026592;28;20555;-59
2023/10/22 00:08:32;;;;;;;7.78;1.60;;;12.80;99.90;;;;;;5032417;28;20041;-61
2023/10/22 00:10:58;;;;;;;3.90;1.45;;;12.80;99.90;;;;;;5030238;28;20578;-60
2023/10/22 00:13:24;;;;;;;7.18;1.80;;;12.80;99.90;;;;;;5010495;28;20485;-59
2023/10/22 00:15:49;;;;;;;5.82;1.50;;;12.80;99.90;;;;;;5034829;28;20552;-60
2023/10/22 00:18:15;;;;;;;8.93;1.40;;;12.80;99.90;;;;;;5008474;28;20147;-60
2023/10/22 00:20:41;;;;;;;6.10;1.70;;;12.80;99.90;;;;;;5022451;28;20049;-60
2023/10/22 00:23:07;;;;;;;4.13;1.48;;;12.80;99.90;;;;;;5020672;28;20167;-60
2023/10/22 00:25:36;;;;;;;7.55;1.50;;;12.80;99.90;;;;;;5015461;28;20407;-59
2023/10/22 00:28:03;;;;;;;7.72;1.48;;;12.90;99.90;;;;;;5029770;28;20041;-60
2023/10/22 00:30:30;;;;;;;8.50;1.50;;;12.90;99.90;;;;;;5030042;28;20821;-58
2023/10/22 00:32:56;;;;;;;5.00;1.40;;;12.90;99.90;;;;;;5038193;28;20103;-61
2023/10/22 00:35:22;;;;;;;4.88;1.42;;;12.90;99.90;;;;;;5034354;28;20506;-60
2023/10/22 00:37:48;;;;;;;5.72;1.40;;;12.90;99.90;;;;;;5011585;28;20048;-60
2023/10/22 00:40:14;;;;;;;7.57;1.58;;;12.90;99.90;;;;;;5005012;28;20048;-58
2023/10/22 00:42:40;;;;;;;12.70;2.42;;;12.90;99.90;;;;;;5029562;28;20080;-60
2023/10/22 00:45:07;;;;;;;5.03;1.42;;;12.90;99.90;;;;;;5030742;28;20119;-60
2023/10/22 00:47:33;;;;;;;4.97;1.25;;;12.90;99.90;;;;;;5016137;28;20049;-59
2023/10/22 00:49:59;;;;;;;4.35;1.38;;;12.90;99.90;;;;;;5011522;28;20080;-60
2023/10/22 00:52:27;;;;;;;4.45;1.27;;;13.00;99.90;;;;;;5026526;28;20055;-60
2023/10/22 00:54:54;;;;;;;4.38;1.35;;;12.90;99.90;;;;;;4997059;28;20440;-59
2023/10/22 00:57:22;;;;;;;3.90;1.45;;;12.90;99.90;;;;;;5031861;28;20053;-61
2023/10/22 00:59:51;;;;;;;5.40;1.40;;;12.90;99.90;;;;;;5030536;28;20049;-60
2023/10/22 01:02:19;;;;;;;6.00;1.60;;;13.00;99.90;;;;;;5032839;28;20586;-60
2023/10/22 01:04:45;;;;;;;4.50;1.30;;;13.00;99.90;;;;;;5030425;28;20052;-59
2023/10/22 01:07:13;;;;;;;5.40;1.13;;;12.90;99.90;;;;;;5029222;28;20037;-60
2023/10/22 01:09:39;;;;;;;4.40;1.17;;;12.90;99.90;;;;;;5015505;28;20049;-60
2023/10/22 01:12:05;;;;;;;3.95;1.17;;;12.90;99.90;;;;;;5030552;28;20514;-60
2023/10/22 01:14:31;;;;;;;4.28;1.20;;;13.00;99.90;;;;;;5031748;28;20120;-60
2023/10/22 01:16:58;;;;;;;6.70;1.45;;;13.00;99.90;;;;;;5035768;28;20036;-58
2023/10/22 01:19:24;;;;;;;3.78;1.20;;;13.00;99.90;;;;;;5032239;28;20048;-61
2023/10/22 01:21:50;;;;;;;3.78;1.15;;;12.90;99.90;;;;;;5028974;28;20041;-61
2023/10/22 01:24:16;;;;;;;3.00;1.00;;;13.00;99.90;;;;;;5031750;28;20047;-59
2023/10/22 01:26:43;;;;;;;3.22;1.13;;;13.00;99.90;;;;;;4998842;28;20037;-61
2023/10/22 01:29:10;;;;;;;3.92;1.10;;;13.10;99.90;;;;;;5030124;28;20539;-60
2023/10/22 01:31:36;;;;;;;2.92;0.95;;;13.00;99.90;;;;;;5026541;28;20040;-62
2023/10/22 01:34:02;;;;;;;5.32;1.10;;;13.00;99.90;;;;;;5028663;28;20037;-60
2023/10/22 01:36:28;;;;;;;5.38;1.13;;;12.90;99.90;;;;;;5025791;28;20500;-61
2023/10/22 01:38:54;;;;;;;3.15;1.00;;;12.90;99.90;;;;;;5018797;28;20048;-58
2023/10/22 01:41:19;;;;;;;5.25;1.10;;;12.90;99.90;;;;;;5026879;28;20514;-60
2023/10/22 01:43:45;;;;;;;5.30;1.00;;;12.90;99.90;;;;;;5027032;28;20395;-61
2023/10/22 01:46:11;;;;;;;2.80;0.88;;;12.90;99.90;;;;;;5014176;28;20072;-60
2023/10/22 01:48:38;;;;;;;3.42;1.10;;;12.80;99.90;;;;;;5033494;28;20064;-59
2023/10/22 01:51:04;;;;;;;2.75;1.00;;;12.80;99.90;;;;;;5027526;28;20053;-59
2023/10/22 01:53:30;;;;;;;3.63;0.98;;;12.80;99.90;;;;;;5027925;28;20037;-60
2023/10/22 01:55:56;;;;;;;6.28;1.58;;;12.80;99.90;;;;;;5031500;28;20045;-59
2023/10/22 01:58:22;;;;;;;6.20;1.10;;;12.80;99.90;;;;;;5030422;28;20681;-60
2023/10/22 02:00:48;;;;;;;5.50;1.10;;;12.70;99.90;;;;;;5029816;28;20429;-58
2023/10/22 02:03:17;;;;;;;5.65;1.20;;;12.70;99.90;;;;;;5032693;28;20048;-58
2023/10/22 02:05:43;;;;;;;4.22;1.15;;;12.70;99.90;;;;;;5029762;28;20407;-61
2023/10/22 02:08:09;;;;;;;6.15;1.35;;;12.70;99.90;;;;;;5033312;28;21879;-60
2023/10/22 02:10:35;;;;;;;5.45;1.30;;;12.60;99.90;;;;;;5031461;28;20044;-60
2023/10/22 02:13:01;;;;;;;4.75;1.55;;;12.60;99.90;;;;;;5029014;28;20487;-61
2023/10/22 02:15:27;;;;;;;5.10;1.20;;;12.50;99.90;;;;;;5014333;28;20052;-59
2023/10/22 02:17:53;;;;;;;4.68;1.35;;;12.50;99.90;;;;;;5035956;28;20079;-60
2023/10/22 02:20:19;;;;;;;7.45;1.33;;;12.40;99.90;;;;;;5013408;28;20544;-60
2023/10/22 02:22:44;;;;;;;5.57;1.60;;;12.40;99.90;;;;;;5027189;28;20120;-58
2023/10/22 02:25:10;;;;;;;4.90;1.50;;;12.30;99.90;;;;;;5014444;28;20045;-60
2023/10/22 02:27:36;;;;;;;3.65;1.45;;;12.30;99.90;;;;;;5030821;28;20060;-59
2023/10/22 02:30:02;;;;;;;4.13;1.33;;;12.20;99.90;;;;;;5031746;28;20497;-60
2023/10/22 02:32:28;;;;;;;4.15;1.40;;;12.20;99.90;;;;;;5032337;28;20036;-61
2023/10/22 02:34:53;;;;;;;4.55;1.50;;;12.20;99.90;;;;;;5031139;28;20092;-59
2023/10/22 02:37:19;;;;;;;4.15;1.67;;;12.20;99.90;;;;;;5031734;28;20395;-61
2023/10/22 02:39:46;;;;;;;2.78;1.42;;;12.10;99.90;;;;;;5014546;28;20041;-57
2023/10/22 02:42:12;;;;;;;6.28;1.50;;;12.10;99.90;;;;;;5028976;28;20053;-60
2023/10/22 02:44:38;;;;;;;4.13;1.45;;;12.10;99.90;;;;;;5012509;28;20487;-58
2023/10/22 02:47:04;;;;;;;3.22;1.50;;;12.10;99.90;;;;;;5024839;28;20049;-60
2023/10/22 02:49:30;;;;;;;3.63;1.25;;;12.00;99.90;;;;;;5025371;28;20103;-59
2023/10/22 02:51:56;;;;;;;4.15;1.83;;;12.10;99.90;;;;;;5023930;28;20169;-58
2023/10/22 02:54:22;;;;;;;5.63;1.88;;;12.00;99.90;;;;;;5025296;28;20079;-60
2023/10/22 02:56:48;;;;;;;5.10;2.00;;;12.00;99.90;;;;;;5025277;28;20041;-58
2023/10/22 02:59:14;;;;;;;5.85;1.90;;;12.00;99.90;;;;;;5021479;28;20358;-59
2023/10/22 03:01:40;;;;;;;7.47;2.08;;;12.00;99.90;;;;;;5023710;28;20742;-59
2023/10/22 03:04:06;;;;;;;3.10;1.80;;;12.00;99.90;;;;;;5006734;28;20047;-58
2023/10/22 03:06:32;;;;;;;3.25;1.77;;;12.00;99.90;;;;;;5024816;28;20106;-59
2023/10/22 03:08:57;;;;;;;4.18;1.90;;;11.90;99.90;;;;;;5025073;28;20083;-59
2023/10/22 03:11:23;;;;;;;2.88;1.85;;;12.00;99.90;;;;;;5030583;28;20045;-59
2023/10/22 03:13:50;;;;;;;3.72;1.80;;;12.00;99.90;;;;;;5019578;28;20518;-60
2023/10/22 03:16:17;;;;;;;3.42;2.20;;;11.90;99.90;;;;;;5035399;28;20579;-60
2023/10/22 03:18:44;;;;;;;5.03;2.10;;;11.90;99.90;;;;;;5038971;28;20128;-58
2023/10/22 03:21:11;;;;;;;2.95;1.85;;;12.00;99.90;;;;;;5021569;28;20040;-58
2023/10/22 03:23:41;;;;;;;3.35;1.85;;;11.90;99.90;;;;;;5036735;28;20589;-59
2023/10/22 03:26:07;;;;;;;2.25;1.60;;;11.90;99.90;;;;;;5004371;28;20033;-58
2023/10/22 03:28:33;;;;;;;3.33;1.73;;;11.90;99.90;;;;;;5036629;28;20476;-60
2023/10/22 03:31:03;;;;;;;4.55;2.05;;;11.90;99.90;;;;;;5014435;28;20168;-59
2023/10/22 03:33:29;;;;;;;3.42;1.70;;;11.90;99.90;;;;;;5030343;28;20037;-59
2023/10/22 03:35:55;;;;;;;4.13;1.95;;;11.90;99.90;;;;;;5038809;28;20037;-60
2023/10/22 03:38:20;;;;;;;4.13;2.05;;;11.90;99.90;;;;;;5016325;28;20090;-61
2023/10/22 03:40:46;;;;;;;4.63;1.92;;;11.90;99.90;;;;;;5036499;28;20037;-60
2023/10/22 03:43:12;;;;;;;4.53;1.90;;;11.90;99.90;;;;;;5032444;28;20474;-59
2023/10/22 03:45:37;;;;;;;5.07;2.05;;;12.00;99.90;;;;;;5034004;28;20056;-58
2023/10/22 03:48:04;;;;;;;6.35;2.13;;;11.90;99.90;;;;;;5035107;28;21146;-59
2023/10/22 03:50:29;;;;;;;4.78;2.03;;;11.90;99.90;;;;;;5035238;28;20049;-61
2023/10/22 03:52:55;;;;;;;4.18;1.60;;;11.90;99.90;;;;;;5012021;28;20513;-60
2023/10/22 03:55:21;;;;;;;5.68;2.05;;;11.90;99.90;;;;;;5036631;28;20093;-60
2023/10/22 03:57:46;;;;;;;3.63;1.73;;;11.90;99.90;;;;;;5034492;28;20057;-60
2023/10/22 04:00:13;;;;;;;3.08;1.60;;;11.90;99.90;;;;;;5037914;28;20072;-61
2023/10/22 04:02:38;;;;;;;4.80;1.60;;;11.90;99.90;;;;;;5035267;28;20093;-61
2023/10/22 04:05:05;;;;;;;5.07;1.90;;;11.90;99.90;;;;;;5033926;28;20441;-60
2023/10/22 04:07:31;;;;;;;4.35;1.50;;;11.90;99.90;;;;;;5032717;28;20041;-59
2023/10/22 04:09:57;;;;;;;4.45;1.90;;;11.90;99.90;;;;;;5036702;28;20092;-60
2023/10/22 04:12:22;;;;;;;2.63;1.63;;;11.90;99.90;;;;;;5033333;28;20044;-58
2023/10/22 04:14:48;;;;;;;3.22;1.50;;;12.00;99.90;;;;;;5035563;28;21971;-58
2023/10/22 04:17:14;;;;;;;2.80;1.40;;;12.00;99.90;;;;;;5034206;28;20052;-59
2023/10/22 04:19:40;;;;;;;3.00;1.50;;;12.00;99.90;;;;;;5036012;28;20036;-60
2023/10/22 04:22:05;;;;;;;4.70;1.80;;;12.00;99.90;;;;;;5035597;28;20175;-59
2023/10/22 04:24:31;;;;;;;3.58;1.50;;;12.00;99.90;;;;;;5018557;28;20059;-59
2023/10/22 04:26:57;;;;;;;3.83;1.50;;;12.00;99.90;;;;;;5033596;28;20036;-60
2023/10/22 04:29:22;;;;;;;5.38;1.45;;;12.00;99.90;;;;;;5034683;28;20056;-61
2023/10/22 04:31:48;;;;;;;3.47;1.40;;;12.00;99.90;;;;;;5037707;28;20572;-59
2023/10/22 04:34:14;;;;;;;3.17;1.50;;;12.00;99.90;;;;;;5034670;28;20079;-60
2023/10/22 04:36:40;;;;;;;4.55;1.50;;;12.00;99.90;;;;;;5034176;28;20036;-60
2023/10/22 04:39:06;;;;;;;4.05;1.20;;;12.00;99.90;;;;;;5037647;28;20052;-60
2023/10/22 04:41:32;;;;;;;4.00;1.40;;;12.00;99.90;;;;;;5036988;28;20052;-59
2023/10/22 04:43:58;;;;;;;1.52;1.10;;;12.00;99.90;;;;;;5033381;28;20078;-61
2023/10/22 04:46:24;;;;;;;2.22;1.20;;;12.00;99.90;;;;;;5037163;28;20048;-60
2023/10/22 04:48:50;;;;;;;1.45;1.10;;;12.00;99.90;;;;;;5037289;28;20056;-59
2023/10/22 04:51:17;;;;;;;5.43;2.35;;;12.00;99.90;;;;;;5037730;28;20041;-59
2023/10/22 04:53:43;;;;;;;2.55;1.05;;;12.00;99.90;;;;;;5033506;28;20048;-59
2023/10/22 04:56:09;;;;;;;2.85;1.30;;;12.00;99.90;;;;;;5033290;28;20072;-59
2023/10/22 04:58:35;;;;;;;2.50;1.20;;;12.00;99.90;;;;;;5032979;28;22438;-59
2023/10/22 05:01:01;;;;;;;2.92;1.27;;;12.00;99.90;;;;;;5018980;28;20033;-59
2023/10/22 05:03:26;;;;;;;2.28;1.50;;;12.00;99.90;;;;;;5036593;28;20033;-60
2023/10/22 05:05:52;;;;;;;1.52;1.10;;;12.00;99.90;;;;;;5037698;28;20614;-59
2023/10/22 05:08:18;;;;;;;1.50;1.30;;;12.00;99.90;;;;;;5036414;28;20038;-60
2023/10/22 05:10:44;;;;;;;2.55;1.50;;;12.00;99.90;;;;;;5032108;28;20045;-58
2023/10/22 05:13:10;;;;;;;1.85;1.10;;;12.00;99.90;;;;;;5034916;28;20047;-59
2023/10/22 05:15:36;;;;;;;2.53;1.25;;;12.00;99.90;;;;;;5036348;28;20080;-58
2023/10/22 05:18:07;;;;;;;2.72;1.42;;;12.00;99.90;;;;;;5015122;28;20277;-58
2023/10/22 05:20:33;;;;;;;1.98;1.77;;;12.10;99.90;;;;;;5036750;28;20051;-59
2023/10/22 05:22:59;;;;;;;4.05;1.98;;;12.10;99.90;;;;;;5035783;28;20029;-59
2023/10/22 05:25:25;;;;;;;2.05;1.70;;;12.10;99.90;;;;;;5039222;28;20033;-60
2023/10/22 05:27:51;;;;;;;7.70;1.98;;;12.10;99.90;;;;;;5040544;28;20053;-60
2023/10/22 05:30:17;;;;;;;3.28;2.20;;;12.10;99.90;;;;;;5044441;28;20163;-60
2023/10/22 05:32:43;;;;;;;2.85;2.45;;;12.10;99.90;;;;;;5024442;28;20068;-60
2023/10/22 05:35:08;;;;;;;4.28;2.88;;;12.10;99.90;;;;;;5024941;28;20550;-60
2023/10/22 05:37:34;;;;;;;3.05;2.75;;;12.20;99.90;;;;;;5033207;28;20076;-61
2023/10/22 05:40:00;;;;;;;4.88;4.35;;;12.10;99.90;;;;;;5014631;28;20301;-60
2023/10/22 05:42:26;;;;;;;6.45;5.13;;;12.20;99.90;;;;;;5009498;28;20053;-58
2023/10/22 05:44:52;;;;;;;7.93;6.30;;;12.20;99.90;;;;;;5007411;28;20110;-59
2023/10/22 05:47:18;;;;;;;8.20;6.40;;;12.20;99.90;;;;;;5012581;28;20041;-59
2023/10/22 05:49:44;;;;;;;10.63;6.07;;;12.20;99.90;;;;;;5008260;28;20049;-60
2023/10/22 05:52:10;;;;;;;8.38;6.63;;;12.30;99.90;;;;;;5007408;28;20052;-59
2023/10/22 05:54:36;;;;;;;11.98;8.45;;;12.30;99.90;;;;;;4998652;28;20420;-57
2023/10/22 05:57:02;;;;;;;12.07;9.52;;;12.30;99.90;;;;;;5009987;28;20045;-60
2023/10/22 05:59:28;;;;;;;12.25;9.45;;;12.30;99.90;;;;;;5015100;28;20416;-60
2023/10/22 06:01:54;;;;;;;10.63;8.70;;;12.30;99.90;;;;;;5012092;28;20042;-58
2023/10/22 06:04:20;;;;;;;8.85;7.50;;;12.40;99.90;;;;;;5008992;28;20043;-60
2023/10/22 06:06:46;;;;;;;6.53;5.45;;;12.40;99.90;;;;;;5012053;28;20056;-59
2023/10/22 06:09:12;;;;;;;5.82;4.63;;;12.40;99.90;;;;;;4997206;28;20087;-59
2023/10/22 06:11:40;;;;;;;5.18;4.20;;;12.40;99.90;;;;;;5019234;28;20045;-61
2023/10/22 06:14:06;;;;;;;6.32;3.58;;;12.40;99.90;;;;;;4997007;28;20045;-61
2023/10/22 06:16:33;;;;;;;3.35;2.67;;;12.40;99.90;;;;;;5018197;28;20041;-60
2023/10/22 06:18:58;;;;;;;2.15;0.90;;;12.40;99.90;;;;;;5025453;28;20041;-56
2023/10/22 06:21:24;;;;;;;0.90;0.70;;;12.40;99.90;;;;;;5003165;28;20037;-61
2023/10/22 06:23:50;;;;;;;1.13;0.98;;;12.40;99.90;;;;;;5007302;28;20400;-60
2023/10/22 06:26:16;;;;;;;2.17;0.80;;;12.30;99.90;;;;;;5023647;28;20040;-61
2023/10/22 06:28:43;;;;;;;3.00;1.10;;;12.30;99.90;;;;;;5023731;28;20056;-58
2023/10/22 06:31:13;;;;;;;1.90;1.05;;;12.30;99.90;;;;;;5007318;28;20049;-58
2023/10/22 06:33:40;;;;;;;4.13;1.20;;;12.20;99.90;;;;;;5025093;28;20048;-60
2023/10/22 06:36:20;;;;;;;6.32;1.80;;;12.20;99.90;;;;;;5020262;28;20037;-60
2023/10/22 06:38:48;;;;;;;4.43;1.35;;;12.10;99.90;;;;;;5019209;28;20045;-60
2023/10/22 06:41:14;;;;;;;3.70;1.52;;;12.10;99.90;;;;;;5024487;28;20419;-60
2023/10/22 06:43:39;;;;;;;3.72;1.50;;;12.10;99.90;;;;;;5039715;28;20045;-60
2023/10/22 06:46:05;;;;;;;4.13;1.83;;;12.10;99.90;;;;;;5042642;28;20021;-60
2023/10/22 06:48:31;;;;;;;5.38;2.00;;;12.00;99.90;;;;;;5043525;28;20119;-60
2023/10/22 06:50:57;;;;;;;5.18;1.60;;;12.00;99.90;;;;;;5038751;28;20386;-60
2023/10/22 06:53:22;;;;;;;3.03;1.23;;;12.00;99.90;;;;;;5042658;28;20064;-61
2023/10/22 06:55:48;;;;;;;4.97;1.10;;;12.00;99.90;;;;;;5036659;28;20045;-60
2023/10/22 06:58:14;;;;;;;5.97;1.40;;;12.00;99.90;;;;;;5038957;28;20613;-60
2023/10/22 07:00:39;;;;;;;4.75;1.40;;;12.00;99.90;;;;;;5032177;28;20045;-58
2023/10/22 07:03:05;;;;;;;7.20;1.45;;;12.00;99.90;;;;;;5024847;28;20466;-58
2023/10/22 07:05:31;;;;;;;5.03;1.70;;;11.90;99.90;;;;;;5035289;28;20489;-58
2023/10/22 07:07:57;;;;;;;4.88;1.40;;;11.90;99.90;;;;;;5035680;28;20045;-59
2023/10/22 07:10:23;;;;;;;4.55;1.58;;;11.90;99.90;;;;;;5036653;28;20060;-60
2023/10/22 07:12:50;;;;;;;7.70;1.52;;;11.90;99.90;;;;;;5038119;28;20233;-59
2023/10/22 07:15:15;;;;;;;5.78;1.77;;;12.00;99.90;;;;;;5035106;28;20052;-59
2023/10/22 07:17:41;;;;;;;4.97;1.80;;;12.00;99.90;;;;;;5036040;28;20041;-59
2023/10/22 07:20:07;;;;;;;7.88;1.80;;;12.00;99.90;;;;;;5029153;28;20053;-61
2023/10/22 07:22:33;;;;;;;4.70;1.80;;;12.00;99.90;;;;;;5003139;28;20694;-61
2023/10/22 07:24:58;;;;;;;4.22;1.75;;;12.00;99.90;;;;;;5007347;28;20029;-57
2023/10/22 07:27:24;;;;;;;5.63;2.03;;;12.00;99.90;;;;;;5020014;28;20080;-58
2023/10/22 07:29:50;;;;;;;6.63;2.15;;;12.00;99.90;;;;;;5023830;28;20055;-59
2023/10/22 07:32:15;;;;;;;6.35;1.88;;;12.00;99.90;;;;;;5026198;28;20507;-59
2023/10/22 07:34:41;;;;;;;4.65;1.98;;;12.00;99.90;;;;;;5021749;28;20056;-60
2023/10/22 07:37:07;;;;;;;5.82;2.17;;;12.00;99.90;;;;;;5021662;28;20047;-59
2023/10/22 07:39:33;;;;;;;6.53;2.28;;;12.00;99.90;;;;;;5024624;28;20138;-60
2023/10/22 07:41:59;;;;;;;7.28;2.17;;;12.00;99.90;;;;;;5020084;28;20088;-58
2023/10/22 07:44:25;;;;;;;4.35;2.08;;;12.00;99.90;;;;;;5009105;28;20562;-59
2023/10/22 07:46:51;;;;;;;5.55;2.50;;;12.00;99.90;;;;;;5024712;28;20047;-61
2023/10/22 07:49:16;;;;;;;6.93;2.30;;;12.00;99.90;;;;;;5022540;28;20044;-58
2023/10/22 07:51:42;;;;;;;4.13;1.75;;;12.00;99.90;;;;;;5014641;28;20510;-59
2023/10/22 07:54:08;;;;;;;4.13;2.00;;;11.90;99.90;;;;;;5026670;28;20061;-59
2023/10/22 07:56:34;;;;;;;4.15;2.28;;;11.90;99.90;;;;;;5036919;28;20032;-60
2023/10/22 07:59:00;;;;;;;3.67;1.90;;;11.90;99.90;;;;;;5006293;28;20033;-58
2023/10/22 08:01:26;;;;;;;3.42;1.67;;;11.90;99.90;;;;;;5026126;28;20045;-60
2023/10/22 08:03:51;;;;;;;3.53;1.85;;;11.80;99.90;;;;;;5024109;28;20041;-60
2023/10/22 08:06:17;;;;;;;5.00;1.75;;;11.80;99.90;;;;;;5020004;28;20495;-58
2023/10/22 08:08:43;;;;;;;3.97;1.70;;;11.80;99.90;;;;;;5026959;28;20049;-58
2023/10/22 08:11:09;;;;;;;6.40;2.00;;;11.80;99.90;;;;;;5010197;28;20170;-59
2023/10/22 08:13:34;;;;;;;6.82;2.30;;;11.80;99.90;;;;;;5029751;28;20036;-60
2023/10/22 08:16:04;;;;;;;6.75;2.42;;;11.80;99.90;;;;;;5027915;28;20627;-60
2023/10/22 08:18:30;;;;;;;8.48;2.30;;;11.80;99.90;;;;;;5027504;28;20045;-59
2023/10/22 08:21:03;;;;;;;10.35;2.60;;;11.80;99.90;;;;;;5030085;28;20037;-60
2023/10/22 08:23:32;;;;;;;8.77;3.80;;;11.90;99.90;;;;;;5030231;28;20035;-59
2023/10/22 08:25:58;;;;;;;9.40;3.08;;;11.90;99.90;;;;;;5026816;28;20037;-59
2023/10/22 08:28:24;;;;;;;10.27;3.10;;;11.90;99.90;;;;;;5026036;28;20434;-59
2023/10/22 08:30:50;;;;;;;9.43;2.88;;;12.00;99.90;;;;;;5028558;28;20655;-60
2023/10/22 08:33:16;;;;;;;8.32;2.55;;;12.00;99.90;;;;;;5027268;28;20045;-58
2023/10/22 08:35:42;;;;;;;6.55;2.15;;;12.10;99.90;;;;;;5026900;28;20055;-58
2023/10/22 08:38:08;;;;;;;5.57;2.20;;;12.10;99.90;;;;;;5029196;28;20052;-59
2023/10/22 08:40:41;;;;;;;10.27;2.70;;;12.20;99.90;;;;;;5027556;28;20481;-57
2023/10/22 08:43:19;;;;;;;5.32;2.22;;;12.20;99.90;;;;;;5028809;28;20080;-60
2023/10/22 08:45:46;;;;;;;8.65;2.05;;;12.20;99.90;;;;;;5028698;28;20112;-60
2023/10/22 08:48:15;;;;;;;8.20;2.42;;;12.30;99.90;;;;;;5027110;28;20799;-60
2023/10/22 08:50:47;;;;;;;6.70;2.20;;;12.30;99.90;;;;;;5025665;28;20051;-61
2023/10/22 08:53:14;;;;;;;3.80;1.70;;;12.30;99.90;;;;;;5010116;28;20216;-60
2023/10/22 08:55:47;;;;;;;8.40;2.10;;;12.40;99.90;;;;;;5027245;28;20514;-61
2023/10/22 08:58:19;;;;;;;4.68;1.88;;;12.40;99.90;;;;;;5032032;28;20411;-57
2023/10/22 09:00:47;;;;;;;5.50;2.27;;;12.40;99.90;;;;;;5028975;28;20052;-59
2023/10/22 09:03:14;;;;;;;5.72;1.92;;;12.50;99.90;;;;;;5013568;28;20040;-60
2023/10/22 09:05:40;;;;;;;6.53;1.60;;;12.50;99.90;;;;;;5028197;28;20044;-59
2023/10/22 09:08:06;;;;;;;7.25;1.90;;;12.50;99.90;;;;;;5018251;28;20068;-60
2023/10/22 09:10:32;;;;;;;7.93;1.80;;;12.50;99.90;;;;;;5024050;28;20052;-58
2023/10/22 09:13:07;;;;;;;3.30;1.70;;;12.60;99.90;;;;;;5025397;28;20629;-58
2023/10/22 09:15:43;;;;;;;6.13;1.55;;;12.60;99.90;;;;;;5023457;28;21773;-60
2023/10/22 09:18:09;;;;;;;5.63;1.73;;;12.60;99.90;;;;;;5022661;28;20124;-58
2023/10/22 09:20:35;;;;;;;5.13;1.38;;;12.60;99.90;;;;;;5026947;28;20708;-59
2023/10/22 09:23:19;;;;;;;5.65;2.13;;;12.60;99.90;;;;;;5023917;28;20063;-60
2023/10/22 09:25:57;;;;;;;3.83;1.50;;;12.60;99.90;;;;;;5023492;28;20075;-59
2023/10/22 09:28:25;;;;;;;5.75;1.40;;;12.70;99.90;;;;;;5021851;28;20045;-58
2023/10/22 09:31:04;;;;;;;6.97;1.35;;;12.70;99.90;;;;;;5030806;28;20080;-61
2023/10/22 09:33:42;;;;;;;5.45;1.38;;;12.80;99.90;;;;;;5028485;28;20133;-60
2023/10/22 09:36:12;;;;;;;4.82;1.25;;;12.80;99.90;;;;;;5032552;28;20134;-60
2023/10/22 09:38:48;;;;;;;4.55;1.42;;;12.80;99.90;;;;;;5036831;28;20095;-60
2023/10/22 09:41:25;;;;;;;4.53;1.23;;;12.90;99.90;;;;;;5033992;28;20079;-60
2023/10/22 09:43:51;;;;;;;6.95;1.50;;;12.90;99.90;;;;;;5033137;28;20055;-59
2023/10/22 09:46:21;;;;;;;3.08;1.00;;;13.00;99.90;;;;;;5034173;28;20228;-61
2023/10/22 09:48:50;;;;;;;8.52;1.55;;;13.10;99.90;;;;;;5011267;28;20094;-58
2023/10/22 09:51:17;;;;;;;4.75;1.13;;;13.30;99.90;;;;;;5037055;28;20051;-59
2023/10/22 09:53:52;;;;;;;3.20;0.98;;;13.50;99.90;;;;;;5025013;28;20052;-58
2023/10/22 09:56:20;;;;;;;2.30;0.90;;;13.60;99.90;;;;;;5018742;28;20384;-60
2023/10/22 09:58:49;;;;;;;1.02;0.75;;;13.80;99.90;;;;;;5031368;28;20037;-58
2023/10/22 10:01:15;;;;;;;2.90;1.00;;;13.90;99.90;;;;;;5034264;28;20048;-60
2023/10/22 10:03:42;;;;;;;8.48;1.10;;;14.00;99.90;;;;;;5025048;28;20044;-60
2023/10/22 10:06:08;;;;;;;4.55;1.30;;;14.00;99.90;;;;;;5024792;28;20045;-60
2023/10/22 10:08:37;;;;;;;3.80;0.90;;;14.10;99.90;;;;;;5020039;28;20041;-56
2023/10/22 10:11:06;;;;;;;5.47;0.82;;;14.20;99.90;;;;;;4996256;28;20716;-58
2023/10/22 10:13:32;;;;;;;5.93;1.10;;;14.20;99.90;;;;;;5026860;28;20114;-59
2023/10/22 10:15:59;;;;;;;2.55;0.98;;;14.30;99.90;;;;;;5022151;28;20041;-58
2023/10/22 10:19:02;;;;;;;2.53;0.93;;;14.30;99.90;;;;;;5025263;28;20064;-59
2023/10/22 10:21:34;;;;;;;1.73;0.85;;;14.50;99.90;;;;;;5023065;28;20070;-58
2023/10/22 10:24:16;;;;;;;5.23;1.30;;;14.60;99.90;;;;;;5022624;28;20040;-60
2023/10/22 10:26:42;;;;;;;4.40;1.08;;;14.80;99.90;;;;;;5022380;28;20299;-60
2023/10/22 10:29:16;;;;;;;2.80;0.90;;;14.80;99.90;;;;;;5021203;28;20041;-57
2023/10/22 10:31:47;;;;;;;4.00;1.40;;;14.80;99.90;;;;;;5030961;28;20052;-58
2023/10/22 10:34:34;;;;;;;4.32;1.45;;;14.70;99.90;;;;;;5025925;28;20107;-57
2023/10/22 10:37:16;;;;;;;7.95;1.50;;;14.50;99.90;;;;;;5029317;28;20301;-57
2023/10/22 10:39:42;;;;;;;3.00;1.10;;;14.30;99.90;;;;;;5027019;28;20079;-56
2023/10/22 10:42:12;;;;;;;2.35;0.80;;;14.20;99.90;;;;;;5031294;28;21606;-56
2023/10/22 10:44:59;;;;;;;2.40;0.80;;;14.10;99.90;;;;;;5019416;28;20450;-57
2023/10/22 10:47:25;;;;;;;2.72;1.02;;;14.00;99.90;;;;;;5025062;28;20116;-56
2023/10/22 10:50:11;;;;;;;5.03;0.90;;;14.00;99.90;;;;;;5021022;28;20526;-57
2023/10/22 10:52:43;;;;;;;3.60;0.80;;;13.90;99.90;;;;;;5026599;28;20403;-57
2023/10/22 10:55:15;;;;;;;2.08;0.70;;;13.80;99.90;;;;;;5024023;28;20531;-59
2023/10/22 10:57:46;;;;;;;3.70;0.98;;;13.70;99.90;;;;;;5021666;28;20159;-59
2023/10/22 11:00:28;;;;;;;2.55;0.82;;;13.90;99.90;;;;;;5022886;28;20044;-57
2023/10/22 11:02:56;;;;;;;6.45;0.95;;;14.10;99.90;;;;;;5023516;28;20036;-55
2023/10/22 11:05:54;;;;;;;4.20;0.90;;;14.10;99.90;;;;;;5022585;28;20041;-58
2023/10/22 11:08:22;;;;;;;3.38;1.00;;;14.10;99.90;;;;;;4978773;28;20057;-57
2023/10/22 11:10:48;;;;;;;2.83;0.80;;;14.00;99.90;;;;;;5027227;28;20053;-58
2023/10/22 11:13:14;;;;;;;5.07;0.88;;;14.00;99.90;;;;;;5027319;28;20123;-60
2023/10/22 11:15:40;;;;;;;1.33;0.77;;;14.00;99.90;;;;;;4991567;28;20142;-56
2023/10/22 11:18:11;;;;;;;3.90;0.90;;;14.10;99.90;;;;;;5020280;28;20045;-58
2023/10/22 11:20:40;;;;;;;1.63;1.00;;;14.10;99.90;;;;;;5026015;28;20116;-59
2023/10/22 11:23:17;;;;;;;3.63;0.90;;;14.00;99.90;;;;;;5028801;28;20077;-58
2023/10/22 11:25:43;;;;;;;1.42;0.60;;;14.10;99.90;;;;;;5026375;28;20474;-56
2023/10/22 11:28:09;;;;;;;3.70;1.00;;;14.10;99.90;;;;;;5025486;28;20136;-57
2023/10/22 11:30:41;;;;;;;3.33;0.80;;;14.30;99.90;;;;;;5023695;28;20453;-57
2023/10/22 11:33:28;;;;;;;2.05;0.77;;;14.50;99.90;;;;;;5025275;28;20343;-57
2023/10/22 11:35:57;;;;;;;3.95;0.73;;;14.90;99.90;;;;;;5032244;28;20075;-57
2023/10/22 11:38:23;;;;;;;1.38;0.85;;;15.20;99.90;;;;;;5032732;28;20098;-60
2023/10/22 11:40:53;;;;;;;2.58;0.80;;;15.50;99.90;;;;;;5035072;28;20040;-59
2023/10/22 11:43:19;;;;;;;3.15;0.70;;;15.70;99.90;;;;;;5015316;28;20053;-60
2023/10/22 11:45:56;;;;;;;2.20;0.63;;;15.90;99.90;;;;;;5026172;28;20056;-60
2023/10/22 11:48:24;;;;;;;2.30;0.80;;;16.00;99.90;;;;;;5027037;28;20071;-58
2023/10/22 11:50:58;;;;;;;1.08;0.52;;;16.10;99.90;;;;;;5017132;28;20048;-60
2023/10/22 11:53:28;;;;;;;1.88;0.70;;;15.90;99.90;;;;;;5028560;28;20102;-59
2023/10/22 11:55:54;;;;;;;1.02;0.63;;;15.70;99.90;;;;;;5031612;28;20519;-57
2023/10/22 11:58:24;;;;;;;4.28;0.82;;;15.50;99.90;;;;;;5035535;28;20037;-59
2023/10/22 12:00:49;;;;;;;1.40;0.70;;;15.20;99.90;;;;;;5038435;28;20080;-59
2023/10/22 12:03:16;;;;;;;1.90;0.60;;;15.10;99.90;;;;;;5037921;28;20559;-59
2023/10/22 12:05:42;;;;;;;0.98;0.60;;;14.90;99.90;;;;;;5041075;28;20033;-59
2023/10/22 12:08:08;;;;;;;1.15;0.50;;;14.80;99.90;;;;;;5038821;28;20040;-59
2023/10/22 12:10:34;;;;;;;1.23;0.68;;;14.70;99.90;;;;;;5045235;28;20041;-58
2023/10/22 12:12:59;;;;;;;0.90;0.60;;;14.60;99.90;;;;;;5036464;28;20059;-58
2023/10/22 12:15:26;;;;;;;0.60;0.57;;;14.60;99.90;;;;;;5039448;28;20045;-59
2023/10/22 12:17:52;;;;;;;0.82;0.50;;;14.60;99.90;;;;;;5018555;28;20049;-59
2023/10/22 12:20:20;;;;;;;2.33;0.60;;;14.70;99.90;;;;;;5026887;28;21276;-59
2023/10/22 12:22:45;;;;;;;2.30;0.70;;;14.90;99.90;;;;;;5026693;28;20037;-57
2023/10/22 12:25:11;;;;;;;2.28;0.60;;;15.20;99.90;;;;;;5034969;28;20603;-60
2023/10/22 12:27:37;;;;;;;2.25;0.80;;;15.40;99.90;;;;;;5020948;28;20037;-59
2023/10/22 12:30:04;;;;;;;1.55;0.60;;;15.80;99.90;;;;;;5014859;28;20120;-56
2023/10/22 12:32:30;;;;;;;2.83;0.70;;;16.10;99.90;;;;;;5040718;28;20487;-57
2023/10/22 12:34:56;;;;;;;0.80;0.65;;;16.30;99.90;;;;;;5042912;28;20037;-57
2023/10/22 12:37:21;;;;;;;1.38;0.50;;;16.50;99.90;;;;;;5036572;28;20045;-58
2023/10/22 12:39:47;;;;;;;2.15;0.70;;;16.70;99.90;;;;;;5035857;28;20051;-58
2023/10/22 12:42:13;;;;;;;0.82;0.63;;;16.60;99.90;;;;;;5029619;28;20057;-59
2023/10/22 12:44:43;;;;;;;3.72;0.80;;;16.50;99.90;;;;;;5033572;28;20056;-56
2023/10/22 12:47:12;;;;;;;1.58;0.45;;;16.40;99.90;;;;;;5032583;28;20609;-58